KAUO/AUO METAR and TAF weather

Enter ICAO airport designator
Station Type Date Time Source
KAUO METAR 2022/05/26 03:56 UTC NOAA

KAUO 260356Z AUTO 15008KT 10SM CLR 21/19 A3009 RMK AO2 SLP185 T02060194


Station Type Date Time Source
KAUO Decoded METAR 2022/05/26 03:56 UTC NOAA

Auburn-Opelika Airport, AL, United States (KAUO) 32-37N 085-26W
May 25, 2022 - 11:56 PM EDT / 2022.05.26 0356 UTC
Wind: from the SSE (150 degrees) at 9 MPH (8 KT):0
Visibility: 10 mile(s):0
Sky conditions: clear
Temperature: 69.1 F (20.6 C)
Dew Point: 66.9 F (19.4 C)
Relative Humidity: 92%
Pressure (altimeter): 30.09 in. Hg (1018 hPa)
ob: KAUO 260356Z AUTO 15008KT 10SM CLR 21/19 A3009 RMK AO2 SLP185 T02060194
cycle: 4

Station Type Date Time Source
KAUO TAF UTC NOAA

Error!

Example: see airport list